Time;durP1;ratioP1;P1;durP2;ratioP2;P2;SDS_P1;SDS_P2;PMS_P1;PMS_P2;Temp;Humidity;BMP_temperature;BMP_pressure;BME280_temperature;BME280_humidity;BME280_pressure;Samples;Min_cycle;Max_cycle;Signal;HPM_P1;HPM_P2
2022/10/25 00:01:36;;;;;;;1.08;0.68;;;;;;;;;;5130366;27;20385;-63
2022/10/25 00:04:03;;;;;;;1.30;0.70;;;;;;;;;;5110671;28;20470;-64
2022/10/25 00:06:29;;;;;;;1.20;0.70;;;;;;;;;;5133694;27;20028;-63
2022/10/25 00:08:56;;;;;;;1.75;1.05;;;;;;;;;;5135353;27;20366;-64
2022/10/25 00:11:24;;;;;;;0.90;0.63;;;;;;;;;;5127341;27;20507;-63
2022/10/25 00:13:53;;;;;;;1.63;0.98;;;;;;;;;;5118747;27;20031;-63
2022/10/25 00:16:21;;;;;;;1.25;0.88;;;;;;;;;;5116782;27;20031;-66
2022/10/25 00:18:48;;;;;;;3.80;0.68;;;;;;;;;;5131321;27;20023;-62
2022/10/25 00:21:15;;;;;;;1.57;0.97;;;;;;;;;;5110433;28;20062;-63
2022/10/25 00:23:41;;;;;;;1.80;0.73;;;;;;;;;;5112565;27;20035;-66
2022/10/25 00:26:09;;;;;;;1.90;0.93;;;;;;;;;;5127225;27;20023;-64
2022/10/25 00:28:36;;;;;;;5.50;0.93;;;;;;;;;;5133758;27;20061;-64
2022/10/25 00:31:07;;;;;;;0.30;0.27;;;;;;;;;;5136061;27;20019;-64
2022/10/25 00:33:34;;;;;;;3.60;0.87;;;;;;;;;;5135902;27;20015;-65
2022/10/25 00:36:17;;;;;;;7.80;0.93;;;;;;;;;;5119862;27;20473;-64
2022/10/25 00:38:45;;;;;;;1.33;0.93;;;;;;;;;;5121526;27;20545;-65
2022/10/25 00:41:13;;;;;;;0.77;0.60;;;;;;;;;;5129916;27;20097;-63
2022/10/25 00:43:44;;;;;;;0.87;0.50;;;;;;;;;;5130756;27;20429;-65
2022/10/25 00:46:11;;;;;;;1.87;0.77;;;;;;;;;;5130675;27;20076;-62
2022/10/25 00:48:37;;;;;;;1.20;0.90;;;;;;;;;;5130310;27;20028;-63
2022/10/25 00:51:04;;;;;;;1.33;0.83;;;;;;;;;;5126857;27;20382;-63
2022/10/25 00:53:34;;;;;;;9.63;1.23;;;;;;;;;;5127442;27;20023;-62
2022/10/25 00:56:16;;;;;;;1.13;0.80;;;;;;;;;;5135721;27;20039;-63
2022/10/25 00:58:46;;;;;;;1.17;0.70;;;;;;;;;;5135272;27;20090;-63
2022/10/25 01:01:15;;;;;;;0.83;0.60;;;;;;;;;;5135398;27;20027;-63
2022/10/25 01:03:44;;;;;;;1.13;0.70;;;;;;;;;;5123766;27;20027;-63
2022/10/25 01:06:29;;;;;;;2.33;0.87;;;;;;;;;;5129753;27;20012;-63
2022/10/25 01:08:56;;;;;;;1.67;0.80;;;;;;;;;;5130138;27;20144;-63
2022/10/25 01:11:23;;;;;;;2.27;1.20;;;;;;;;;;5129996;27;20119;-63
2022/10/25 01:13:51;;;;;;;2.97;1.43;;;;;;;;;;5119976;27;20024;-63
2022/10/25 01:16:23;;;;;;;2.37;1.27;;;;;;;;;;5114469;28;20031;-63
2022/10/25 01:18:57;;;;;;;3.90;1.53;;;;;;;;;;5115172;27;20127;-63
2022/10/25 01:21:35;;;;;;;1.77;1.30;;;;;;;;;;5115537;27;20036;-63
2022/10/25 01:24:05;;;;;;;2.40;1.43;;;;;;;;;;5114250;28;20028;-63
2022/10/25 01:26:41;;;;;;;6.03;1.60;;;;;;;;;;5109334;28;20856;-62
2022/10/25 01:29:07;;;;;;;5.97;1.47;;;;;;;;;;5108799;28;20019;-62
2022/10/25 01:31:40;;;;;;;2.60;1.77;;;;;;;;;;5112247;27;20039;-62
2022/10/25 01:34:15;;;;;;;3.47;1.73;;;;;;;;;;5129606;27;20023;-62
2022/10/25 01:36:41;;;;;;;;;;;;;;;;;;5134882;27;20027;-62
2022/10/25 01:39:23;;;;;;;1.77;1.23;;;;;;;;;;5134553;27;19903;-62
2022/10/25 01:42:28;;;;;;;3.43;1.70;;;;;;;;;;5128764;27;20490;-63
2022/10/25 01:45:07;;;;;;;6.55;2.88;;;;;;;;;;5051058;28;20507;-62
2022/10/25 01:47:53;;;;;;;3.23;1.50;;;;;;;;;;5049037;28;20045;-62
2022/10/25 01:50:27;;;;;;;2.10;1.47;;;;;;;;;;5089787;27;20071;-62
2022/10/25 01:52:54;;;;;;;2.17;1.48;;;;;;;;;;5129189;27;20027;-64
2022/10/25 01:55:26;;;;;;;3.47;1.23;;;;;;;;;;5129332;27;20015;-62
2022/10/25 01:58:17;;;;;;;3.73;1.40;;;;;;;;;;5131531;27;20478;-62
2022/10/25 02:01:07;;;;;;;1.67;1.10;;;;;;;;;;5130549;27;20088;-62
2022/10/25 02:03:40;;;;;;;1.30;0.80;;;;;;;;;;5105340;28;20036;-63
2022/10/25 02:06:16;;;;;;;0.73;0.53;;;;;;;;;;5113543;28;20088;-62
2022/10/25 02:08:59;;;;;;;0.80;0.50;;;;;;;;;;5095306;28;20374;-62
2022/10/25 02:11:27;;;;;;;1.10;0.70;;;;;;;;;;5109641;27;20134;-62
2022/10/25 02:13:53;;;;;;;1.27;0.80;;;;;;;;;;5108373;28;20060;-62
2022/10/25 02:16:24;;;;;;;2.73;1.37;;;;;;;;;;5108351;28;20082;-62
2022/10/25 02:18:53;;;;;;;2.07;1.00;;;;;;;;;;5108235;28;20028;-62
2022/10/25 02:21:20;;;;;;;3.70;1.67;;;;;;;;;;5112929;28;20094;-62
2022/10/25 02:23:48;;;;;;;9.00;1.37;;;;;;;;;;5127831;27;20410;-62
2022/10/25 02:26:15;;;;;;;4.63;1.57;;;;;;;;;;5133893;27;20529;-62
2022/10/25 02:28:42;;;;;;;1.17;0.90;;;;;;;;;;5133448;27;20019;-62
2022/10/25 02:31:13;;;;;;;1.27;0.80;;;;;;;;;;5114641;27;20031;-62
2022/10/25 02:33:43;;;;;;;1.93;1.23;;;;;;;;;;5116736;27;20035;-62
2022/10/25 02:36:18;;;;;;;3.53;1.90;;;;;;;;;;5108084;28;20024;-62
2022/10/25 02:38:45;;;;;;;1.87;1.40;;;;;;;;;;5119495;27;20616;-62
2022/10/25 02:41:12;;;;;;;3.70;2.10;;;;;;;;;;5126714;27;20477;-64
2022/10/25 02:43:38;;;;;;;1.90;1.20;;;;;;;;;;5128347;27;20076;-62
2022/10/25 02:46:09;;;;;;;4.27;2.30;;;;;;;;;;5133559;27;20053;-63
2022/10/25 02:48:36;;;;;;;6.40;2.40;;;;;;;;;;5126933;27;20194;-65
2022/10/25 02:51:04;;;;;;;1.80;1.27;;;;;;;;;;5113870;28;20035;-66
2022/10/25 02:53:31;;;;;;;2.63;1.30;;;;;;;;;;5121976;28;20076;-63
2022/10/25 02:56:02;;;;;;;3.93;1.17;;;;;;;;;;5108404;28;20106;-63
2022/10/25 02:58:30;;;;;;;2.87;1.97;;;;;;;;;;5123343;28;20030;-66
2022/10/25 03:00:57;;;;;;;1.93;1.17;;;;;;;;;;5124777;28;20055;-64
2022/10/25 03:03:24;;;;;;;2.27;1.40;;;;;;;;;;5113554;28;20508;-62
2022/10/25 03:05:51;;;;;;;6.93;1.90;;;;;;;;;;5127523;28;20023;-63
2022/10/25 03:08:17;;;;;;;6.37;1.60;;;;;;;;;;5133416;28;20031;-61
2022/10/25 03:10:44;;;;;;;0.93;0.60;;;;;;;;;;5126303;28;22112;-62
2022/10/25 03:13:11;;;;;;;3.83;1.23;;;;;;;;;;5125702;27;20541;-63
2022/10/25 03:15:37;;;;;;;0.77;0.63;;;;;;;;;;5135431;27;20028;-66
2022/10/25 03:18:04;;;;;;;0.70;0.63;;;;;;;;;;5131123;27;20024;-63
2022/10/25 03:20:31;;;;;;;3.17;1.03;;;;;;;;;;5132286;27;20122;-64
2022/10/25 03:22:57;;;;;;;1.33;1.00;;;;;;;;;;5132192;27;20034;-63
2022/10/25 03:25:24;;;;;;;1.60;0.77;;;;;;;;;;5132057;27;20019;-64
2022/10/25 03:27:51;;;;;;;0.73;0.70;;;;;;;;;;5133107;27;20026;-62
2022/10/25 03:30:17;;;;;;;1.83;1.23;;;;;;;;;;5136801;27;20092;-63
2022/10/25 03:32:44;;;;;;;3.70;1.77;;;;;;;;;;5136591;27;20027;-63
2022/10/25 03:35:11;;;;;;;0.93;0.57;;;;;;;;;;5136840;27;20082;-64
2022/10/25 03:37:37;;;;;;;1.23;0.97;;;;;;;;;;5130230;27;20370;-64
2022/10/25 03:40:04;;;;;;;1.77;1.30;;;;;;;;;;5112900;28;20378;-64
2022/10/25 03:42:31;;;;;;;1.30;1.20;;;;;;;;;;5111389;28;20486;-63
2022/10/25 03:44:58;;;;;;;1.90;1.37;;;;;;;;;;5111006;28;20673;-65
2022/10/25 03:47:24;;;;;;;4.27;1.60;;;;;;;;;;5115182;27;20503;-65
2022/10/25 03:49:51;;;;;;;3.20;1.13;;;;;;;;;;5134429;27;20033;-67
2022/10/25 03:52:18;;;;;;;1.43;0.93;;;;;;;;;;5136217;27;20031;-64
2022/10/25 03:54:44;;;;;;;0.80;0.70;;;;;;;;;;5136734;27;20072;-67
2022/10/25 03:57:11;;;;;;;0.53;0.53;;;;;;;;;;5133969;27;20031;-65
2022/10/25 03:59:37;;;;;;;1.30;1.10;;;;;;;;;;5122335;27;20343;-63
2022/10/25 04:02:04;;;;;;;11.00;6.50;;;;;;;;;;5121564;27;20023;-62
2022/10/25 04:04:31;;;;;;;3.93;1.90;;;;;;;;;;5131516;27;20027;-62
2022/10/25 04:06:57;;;;;;;1.73;0.77;;;;;;;;;;5130755;27;20439;-63
2022/10/25 04:09:24;;;;;;;1.30;0.80;;;;;;;;;;5110700;28;20024;-62
2022/10/25 04:11:51;;;;;;;2.00;1.40;;;;;;;;;;5112283;28;20087;-62
2022/10/25 04:14:17;;;;;;;4.03;1.73;;;;;;;;;;5115834;28;20085;-62
2022/10/25 04:16:44;;;;;;;5.17;1.70;;;;;;;;;;5115794;28;20019;-62
2022/10/25 04:19:11;;;;;;;2.27;1.13;;;;;;;;;;5133999;27;20011;-62
2022/10/25 04:21:37;;;;;;;8.40;1.03;;;;;;;;;;5136163;27;20035;-62
2022/10/25 04:24:04;;;;;;;1.43;1.00;;;;;;;;;;5133861;27;20076;-61
2022/10/25 04:26:33;;;;;;;0.93;0.80;;;;;;;;;;5130925;27;20023;-61
2022/10/25 04:29:00;;;;;;;13.63;1.30;;;;;;;;;;5113369;27;20111;-60
2022/10/25 04:31:27;;;;;;;1.63;1.00;;;;;;;;;;5110365;28;20060;-60
2022/10/25 04:33:54;;;;;;;4.07;1.37;;;;;;;;;;5128587;27;20023;-60
2022/10/25 04:36:21;;;;;;;2.20;1.13;;;;;;;;;;5135718;27;20028;-60
2022/10/25 04:38:48;;;;;;;2.50;1.60;;;;;;;;;;5135898;27;20054;-60
2022/10/25 04:41:15;;;;;;;3.30;0.77;;;;;;;;;;5135865;27;20115;-60
2022/10/25 04:43:42;;;;;;;1.80;1.40;;;;;;;;;;5120611;27;20450;-61
2022/10/25 04:46:08;;;;;;;2.10;1.00;;;;;;;;;;5113687;28;20020;-60
2022/10/25 04:48:38;;;;;;;2.83;1.67;;;;;;;;;;5109951;28;20061;-60
2022/10/25 04:51:05;;;;;;;1.53;1.07;;;;;;;;;;5109950;28;20385;-61
2022/10/25 04:53:32;;;;;;;0.83;0.73;;;;;;;;;;5122730;27;20423;-60
2022/10/25 04:56:06;;;;;;;0.97;0.87;;;;;;;;;;5130750;27;20031;-60
2022/10/25 04:58:33;;;;;;;1.17;0.98;;;;;;;;;;5135540;27;20098;-60
2022/10/25 05:01:01;;;;;;;1.57;1.07;;;;;;;;;;5135139;27;20029;-60
2022/10/25 05:03:28;;;;;;;2.03;0.87;;;;;;;;;;5128944;27;20027;-61
2022/10/25 05:05:55;;;;;;;1.87;1.03;;;;;;;;;;5135387;27;20019;-60
2022/10/25 05:08:22;;;;;;;3.77;1.27;;;;;;;;;;5134518;27;20023;-60
2022/10/25 05:10:55;;;;;;;2.87;1.40;;;;;;;;;;5130017;27;20377;-60
2022/10/25 05:13:21;;;;;;;2.77;1.10;;;;;;;;;;5118744;27;20505;-60
2022/10/25 05:15:57;;;;;;;1.30;1.03;;;;;;;;;;5109179;28;20024;-60
2022/10/25 05:18:24;;;;;;;2.33;1.43;;;;;;;;;;5109821;28;20517;-61
2022/10/25 05:20:58;;;;;;;1.60;0.97;;;;;;;;;;5114444;28;20028;-60
2022/10/25 05:23:25;;;;;;;9.87;4.37;;;;;;;;;;5125275;27;20558;-60
2022/10/25 05:26:20;;;;;;;5.23;3.63;;;;;;;;;;5135042;27;20525;-61
2022/10/25 05:28:47;;;;;;;;;;;;;;;;;;5121942;27;20043;-60
2022/10/25 05:31:19;;;;;;;5.17;2.87;;;;;;;;;;5132939;27;19968;-61
2022/10/25 05:33:49;;;;;;;5.37;2.20;;;;;;;;;;5115408;27;20612;-60
2022/10/25 05:36:16;;;;;;;2.87;2.10;;;;;;;;;;5108035;28;20023;-61
2022/10/25 05:38:43;;;;;;;1.63;1.20;;;;;;;;;;5109152;28;20081;-60
2022/10/25 05:41:10;;;;;;;1.40;1.23;;;;;;;;;;5110345;28;20150;-60
2022/10/25 05:43:37;;;;;;;1.73;1.40;;;;;;;;;;5126139;27;20477;-60
2022/10/25 05:46:17;;;;;;;6.53;2.80;;;;;;;;;;5134250;27;20057;-60
2022/10/25 05:48:44;;;;;;;1.70;1.40;;;;;;;;;;5134480;27;20406;-60
2022/10/25 05:51:14;;;;;;;1.70;1.17;;;;;;;;;;5133945;27;20015;-60
2022/10/25 05:53:45;;;;;;;1.83;1.53;;;;;;;;;;5119190;27;20023;-60
2022/10/25 05:56:12;;;;;;;0.93;0.80;;;;;;;;;;5108875;28;20054;-60
2022/10/25 05:58:38;;;;;;;1.80;1.17;;;;;;;;;;5108666;28;20024;-60
2022/10/25 06:01:05;;;;;;;1.70;1.10;;;;;;;;;;5108755;28;20032;-61
2022/10/25 06:03:32;;;;;;;3.93;2.10;;;;;;;;;;5127774;27;20027;-59
2022/10/25 06:06:00;;;;;;;2.03;1.33;;;;;;;;;;5133548;27;20027;-59
2022/10/25 06:08:26;;;;;;;1.10;0.80;;;;;;;;;;5134075;27;20031;-59
2022/10/25 06:10:53;;;;;;;1.63;1.40;;;;;;;;;;5133699;27;20499;-62
2022/10/25 06:13:20;;;;;;;1.23;0.97;;;;;;;;;;5113617;28;20073;-60
2022/10/25 06:15:46;;;;;;;4.40;1.83;;;;;;;;;;5111865;28;20800;-59
2022/10/25 06:18:13;;;;;;;3.13;1.23;;;;;;;;;;5108479;28;20020;-60
2022/10/25 06:20:40;;;;;;;0.97;0.73;;;;;;;;;;5108230;28;20023;-60
2022/10/25 06:23:06;;;;;;;2.00;0.80;;;;;;;;;;5108816;27;20493;-61
2022/10/25 06:25:33;;;;;;;1.77;1.57;;;;;;;;;;5108849;28;20489;-60
2022/10/25 06:28:00;;;;;;;1.33;1.13;;;;;;;;;;5130509;27;20038;-60
2022/10/25 06:30:26;;;;;;;1.33;1.07;;;;;;;;;;5120268;27;20050;-60
2022/10/25 06:32:53;;;;;;;2.60;1.30;;;;;;;;;;5112816;28;20040;-60
2022/10/25 06:35:20;;;;;;;1.53;1.43;;;;;;;;;;5113068;28;20482;-60
2022/10/25 06:37:47;;;;;;;3.13;0.87;;;;;;;;;;5126749;27;20080;-60
2022/10/25 06:40:14;;;;;;;2.10;1.03;;;;;;;;;;5127841;27;20023;-60
2022/10/25 06:42:41;;;;;;;2.20;1.60;;;;;;;;;;5128346;27;20034;-60
2022/10/25 06:45:08;;;;;;;2.10;1.53;;;;;;;;;;5128021;27;20035;-60
2022/10/25 06:47:34;;;;;;;2.97;1.90;;;;;;;;;;5114899;28;20264;-60
2022/10/25 06:50:01;;;;;;;2.50;1.83;;;;;;;;;;5112807;28;20023;-60
2022/10/25 06:52:28;;;;;;;2.90;1.90;;;;;;;;;;5112730;28;20035;-60
2022/10/25 06:54:55;;;;;;;1.20;0.80;;;;;;;;;;5112635;28;20027;-60
2022/10/25 06:57:21;;;;;;;1.90;1.47;;;;;;;;;;5122824;28;20103;-61
2022/10/25 06:59:48;;;;;;;2.10;1.53;;;;;;;;;;5133268;28;20422;-59
2022/10/25 07:02:15;;;;;;;3.03;1.63;;;;;;;;;;5127862;28;20027;-60
2022/10/25 07:04:41;;;;;;;2.60;1.50;;;;;;;;;;5128066;28;20381;-59
2022/10/25 07:07:09;;;;;;;2.60;1.97;;;;;;;;;;5118958;28;20434;-60
2022/10/25 07:09:35;;;;;;;2.27;1.20;;;;;;;;;;5107536;28;20047;-60
2022/10/25 07:12:02;;;;;;;3.27;1.60;;;;;;;;;;5111812;28;20040;-60
2022/10/25 07:14:29;;;;;;;1.90;1.27;;;;;;;;;;5112138;28;20057;-60
2022/10/25 07:16:55;;;;;;;2.43;1.87;;;;;;;;;;5118861;28;20023;-60
2022/10/25 07:19:23;;;;;;;1.27;1.00;;;;;;;;;;5133045;28;20023;-60
2022/10/25 07:21:50;;;;;;;2.57;1.67;;;;;;;;;;5132999;28;20045;-60
2022/10/25 07:24:17;;;;;;;3.93;2.07;;;;;;;;;;5121664;28;20111;-60
2022/10/25 07:26:44;;;;;;;4.40;2.53;;;;;;;;;;5107181;28;20024;-60
2022/10/25 07:29:10;;;;;;;1.00;0.83;;;;;;;;;;5107167;28;20416;-60
2022/10/25 07:31:39;;;;;;;4.50;2.47;;;;;;;;;;5106819;28;20088;-60
2022/10/25 07:34:06;;;;;;;33.23;2.03;;;;;;;;;;5114603;28;20033;-60
2022/10/25 07:36:33;;;;;;;1.20;0.80;;;;;;;;;;5132899;28;20098;-60
2022/10/25 07:39:00;;;;;;;2.03;1.43;;;;;;;;;;5133000;28;20034;-60
2022/10/25 07:41:26;;;;;;;2.57;1.47;;;;;;;;;;5132882;28;20023;-60
2022/10/25 07:43:54;;;;;;;2.37;1.10;;;;;;;;;;5132615;28;20033;-60
2022/10/25 07:46:21;;;;;;;1.43;1.10;;;;;;;;;;5126854;28;20036;-60
2022/10/25 07:48:47;;;;;;;1.57;0.90;;;;;;;;;;5127369;28;20477;-60
2022/10/25 07:51:15;;;;;;;1.87;1.30;;;;;;;;;;5127501;28;20051;-60
2022/10/25 07:53:42;;;;;;;1.30;0.90;;;;;;;;;;5127344;28;20042;-60
2022/10/25 07:56:13;;;;;;;2.80;1.93;;;;;;;;;;5114236;28;20019;-61
2022/10/25 07:58:40;;;;;;;2.63;1.60;;;;;;;;;;5112335;28;20020;-60
2022/10/25 08:01:08;;;;;;;1.83;1.27;;;;;;;;;;5115972;28;20019;-60
2022/10/25 08:03:34;;;;;;;1.67;1.13;;;;;;;;;;5115291;28;20016;-60
2022/10/25 08:06:01;;;;;;;4.53;1.27;;;;;;;;;;5130117;27;20035;-60
2022/10/25 08:08:28;;;;;;;2.87;1.87;;;;;;;;;;5132378;27;20111;-60
2022/10/25 08:10:56;;;;;;;2.37;1.70;;;;;;;;;;5131022;27;20069;-60
2022/10/25 08:13:22;;;;;;;5.43;2.57;;;;;;;;;;5130936;27;20035;-59
2022/10/25 08:15:50;;;;;;;1.23;1.10;;;;;;;;;;5120772;27;20031;-60
2022/10/25 08:18:16;;;;;;;8.70;2.17;;;;;;;;;;5121840;27;20031;-60
2022/10/25 08:20:43;;;;;;;1.87;1.30;;;;;;;;;;5135728;27;20046;-60
2022/10/25 08:23:10;;;;;;;1.80;1.47;;;;;;;;;;5136078;27;20018;-60
2022/10/25 08:25:36;;;;;;;1.50;1.33;;;;;;;;;;5135672;27;20384;-60
2022/10/25 08:28:03;;;;;;;0.70;0.60;;;;;;;;;;5135742;27;20031;-60
2022/10/25 08:30:30;;;;;;;1.47;1.37;;;;;;;;;;5133119;27;20047;-60
2022/10/25 08:32:56;;;;;;;1.63;1.30;;;;;;;;;;5127467;27;20034;-60
2022/10/25 08:35:23;;;;;;;4.03;2.13;;;;;;;;;;5126099;27;20346;-60
2022/10/25 08:37:50;;;;;;;1.57;1.37;;;;;;;;;;5130155;27;20477;-60
2022/10/25 08:40:18;;;;;;;1.77;1.57;;;;;;;;;;5132506;27;20530;-60
2022/10/25 08:42:48;;;;;;;4.50;1.30;;;;;;;;;;5135593;27;20027;-60
2022/10/25 08:45:21;;;;;;;2.73;1.60;;;;;;;;;;5121096;27;20080;-60
2022/10/25 08:47:51;;;;;;;2.80;1.80;;;;;;;;;;5115090;28;20023;-60
2022/10/25 08:50:30;;;;;;;2.20;1.83;;;;;;;;;;5114825;28;20366;-60
2022/10/25 08:52:58;;;;;;;1.60;1.50;;;;;;;;;;5112685;27;20036;-60
2022/10/25 08:55:37;;;;;;;6.13;2.13;;;;;;;;;;5109729;28;20098;-60
2022/10/25 08:58:06;;;;;;;5.17;2.23;;;;;;;;;;5109571;28;20061;-60
2022/10/25 09:00:39;;;;;;;2.70;1.67;;;;;;;;;;5109627;28;20023;-60
2022/10/25 09:03:13;;;;;;;2.67;1.70;;;;;;;;;;5128261;27;20041;-60
2022/10/25 09:05:46;;;;;;;2.97;2.03;;;;;;;;;;5135231;27;20048;-60
2022/10/25 09:08:15;;;;;;;1.73;1.47;;;;;;;;;;5135191;27;20031;-60
2022/10/25 09:10:48;;;;;;;9.10;1.87;;;;;;;;;;5119202;27;20023;-60
2022/10/25 09:13:38;;;;;;;1.93;1.67;;;;;;;;;;5114142;28;20043;-59
2022/10/25 09:16:12;;;;;;;5.10;2.67;;;;;;;;;;5109896;28;20536;-60
2022/10/25 09:18:51;;;;;;;2.42;1.63;;;;;;;;;;5109259;28;20092;-60
2022/10/25 09:21:33;;;;;;;1.57;1.20;;;;;;;;;;5127896;27;20032;-59
2022/10/25 09:24:02;;;;;;;1.90;1.47;;;;;;;;;;5129545;27;20023;-60
2022/10/25 09:26:40;;;;;;;3.00;2.00;;;;;;;;;;5134732;27;20027;-60
2022/10/25 09:29:12;;;;;;;4.70;2.07;;;;;;;;;;5133698;27;20477;-60
2022/10/25 09:31:42;;;;;;;1.67;1.37;;;;;;;;;;5114196;28;20504;-60
2022/10/25 09:34:10;;;;;;;1.53;1.13;;;;;;;;;;5114257;28;20015;-60
2022/10/25 09:36:40;;;;;;;5.33;3.23;;;;;;;;;;5113344;28;20081;-60
2022/10/25 09:39:14;;;;;;;2.63;2.03;;;;;;;;;;5108951;28;20027;-59
2022/10/25 09:41:42;;;;;;;5.40;2.77;;;;;;;;;;5129263;27;20525;-60
2022/10/25 09:44:27;;;;;;;3.97;2.33;;;;;;;;;;5129088;27;20033;-60
2022/10/25 09:46:56;;;;;;;3.03;2.20;;;;;;;;;;5130166;27;20050;-60
2022/10/25 09:49:23;;;;;;;5.33;2.43;;;;;;;;;;5131881;27;20377;-59
2022/10/25 09:52:02;;;;;;;2.23;1.93;;;;;;;;;;5113691;28;20077;-59
2022/10/25 09:54:41;;;;;;;1.87;1.57;;;;;;;;;;5113735;28;20416;-60
2022/10/25 09:57:08;;;;;;;1.70;1.30;;;;;;;;;;5113657;28;20023;-60
2022/10/25 09:59:34;;;;;;;3.73;2.27;;;;;;;;;;5114626;27;20020;-60
2022/10/25 10:02:01;;;;;;;3.77;2.20;;;;;;;;;;5128741;27;20039;-59
2022/10/25 10:04:27;;;;;;;3.17;2.33;;;;;;;;;;5128820;27;20079;-61
2022/10/25 10:06:56;;;;;;;3.53;2.50;;;;;;;;;;5128352;27;20025;-60
2022/10/25 10:09:24;;;;;;;1.70;1.40;;;;;;;;;;5128158;27;20076;-60
2022/10/25 10:11:52;;;;;;;3.37;2.33;;;;;;;;;;5113605;28;20382;-59
2022/10/25 10:14:22;;;;;;;2.40;1.57;;;;;;;;;;5113324;28;20024;-59
2022/10/25 10:16:50;;;;;;;3.53;2.17;;;;;;;;;;5113333;28;20026;-60
2022/10/25 10:19:21;;;;;;;2.53;1.50;;;;;;;;;;5113229;28;20065;-60
2022/10/25 10:21:51;;;;;;;2.10;1.40;;;;;;;;;;5131443;27;20407;-60
2022/10/25 10:24:19;;;;;;;3.70;2.10;;;;;;;;;;5128383;27;20027;-60
2022/10/25 10:26:50;;;;;;;2.50;2.17;;;;;;;;;;5128598;27;20027;-60
2022/10/25 10:29:27;;;;;;;2.43;1.53;;;;;;;;;;5127950;27;20023;-60
2022/10/25 10:31:56;;;;;;;2.20;1.80;;;;;;;;;;5109601;28;20075;-59
2022/10/25 10:34:22;;;;;;;2.53;1.90;;;;;;;;;;5113102;28;20030;-60
2022/10/25 10:37:01;;;;;;;1.93;1.60;;;;;;;;;;5112910;28;20023;-59
2022/10/25 10:39:27;;;;;;;2.60;1.90;;;;;;;;;;5114099;27;20027;-60
2022/10/25 10:42:04;;;;;;;2.40;1.87;;;;;;;;;;5133369;27;20031;-61
2022/10/25 10:44:35;;;;;;;1.30;1.10;;;;;;;;;;5130179;27;20473;-60
2022/10/25 10:47:02;;;;;;;1.63;1.27;;;;;;;;;;5128164;27;20027;-60
2022/10/25 10:49:34;;;;;;;1.37;1.17;;;;;;;;;;5126436;27;20023;-60
2022/10/25 10:52:02;;;;;;;2.10;1.50;;;;;;;;;;5107426;28;20027;-60
2022/10/25 10:54:34;;;;;;;2.53;2.03;;;;;;;;;;5110102;28;20023;-59
2022/10/25 10:57:04;;;;;;;2.70;2.20;;;;;;;;;;5112613;28;20024;-59
2022/10/25 10:59:36;;;;;;;2.60;1.87;;;;;;;;;;5113950;28;20027;-60
2022/10/25 11:02:12;;;;;;;6.47;2.43;;;;;;;;;;5127597;28;20041;-60
2022/10/25 11:04:57;;;;;;;2.93;1.87;;;;;;;;;;5112871;28;20519;-59
2022/10/25 11:07:34;;;;;;;3.10;1.88;;;;;;;;;;5108288;28;20023;-60
2022/10/25 11:10:15;;;;;;;2.90;1.73;;;;;;;;;;5107402;28;20028;-60
2022/10/25 11:12:42;;;;;;;3.57;2.10;;;;;;;;;;5116963;28;20508;-60
2022/10/25 11:15:13;;;;;;;4.90;2.67;;;;;;;;;;5127844;28;20019;-60
2022/10/25 11:17:43;;;;;;;3.97;2.47;;;;;;;;;;5121302;28;20023;-61
2022/10/25 11:20:25;;;;;;;1.27;1.13;;;;;;;;;;5112587;28;20020;-59
2022/10/25 11:22:58;;;;;;;3.97;2.33;;;;;;;;;;5112557;28;20020;-60
2022/10/25 11:25:31;;;;;;;2.00;1.57;;;;;;;;;;5112498;28;20019;-59
2022/10/25 11:28:10;;;;;;;1.53;1.40;;;;;;;;;;5123625;28;20150;-60
2022/10/25 11:30:45;;;;;;;2.77;1.90;;;;;;;;;;5127648;28;20052;-60
2022/10/25 11:33:28;;;;;;;3.30;1.77;;;;;;;;;;5127627;27;20027;-60
2022/10/25 11:36:06;;;;;;;4.00;2.17;;;;;;;;;;5131391;27;20027;-59
2022/10/25 11:38:36;;;;;;;2.90;2.10;;;;;;;;;;5116058;27;20023;-60
2022/10/25 11:41:02;;;;;;;2.47;1.83;;;;;;;;;;5116510;28;20534;-59
2022/10/25 11:43:41;;;;;;;2.53;2.03;;;;;;;;;;5116494;28;20357;-59
2022/10/25 11:46:26;;;;;;;3.93;2.50;;;;;;;;;;5115704;28;20028;-60
2022/10/25 11:48:52;;;;;;;1.83;1.50;;;;;;;;;;5119493;27;20050;-60
2022/10/25 11:51:35;;;;;;;2.47;1.83;;;;;;;;;;5113167;28;20024;-60
2022/10/25 11:54:07;;;;;;;2.77;2.10;;;;;;;;;;5110705;28;20545;-59
2022/10/25 11:56:34;;;;;;;2.17;1.73;;;;;;;;;;5110759;28;20373;-59
2022/10/25 11:59:15;;;;;;;2.40;1.83;;;;;;;;;;5125792;27;20072;-59
2022/10/25 12:01:45;;;;;;;3.93;2.67;;;;;;;;;;5134541;27;20094;-60
2022/10/25 12:04:32;;;;;;;2.50;2.00;;;;;;;;;;5136305;27;20024;-60
2022/10/25 12:07:09;;;;;;;11.17;2.53;;;;;;;;;;5136422;27;20033;-59
2022/10/25 12:09:42;;;;;;;4.50;2.30;;;;;;;;;;5116054;27;20027;-59
2022/10/25 12:12:11;;;;;;;2.10;1.73;;;;;;;;;;5115576;28;20398;-59
2022/10/25 12:14:39;;;;;;;5.43;2.90;;;;;;;;;;5110070;28;20023;-60
2022/10/25 12:17:11;;;;;;;3.77;2.00;;;;;;;;;;5110412;28;20026;-59
2022/10/25 12:19:45;;;;;;;4.27;2.60;;;;;;;;;;5129994;27;20019;-60
2022/10/25 12:22:17;;;;;;;3.30;2.63;;;;;;;;;;5131083;27;20519;-59
2022/10/25 12:24:46;;;;;;;1.97;1.67;;;;;;;;;;5129425;27;20023;-59
2022/10/25 12:27:15;;;;;;;4.03;2.33;;;;;;;;;;5115119;28;20054;-59
2022/10/25 12:29:44;;;;;;;3.37;2.47;;;;;;;;;;5115395;28;20430;-60
2022/10/25 12:32:13;;;;;;;7.33;2.83;;;;;;;;;;5115149;27;20035;-60
2022/10/25 12:34:40;;;;;;;2.20;1.73;;;;;;;;;;5119440;27;20019;-59
2022/10/25 12:37:19;;;;;;;3.37;2.13;;;;;;;;;;5130413;27;20021;-59
2022/10/25 12:39:46;;;;;;;4.87;2.30;;;;;;;;;;5130207;27;20076;-60
2022/10/25 12:42:21;;;;;;;3.17;2.37;;;;;;;;;;5130326;27;20719;-59
2022/10/25 12:45:03;;;;;;;3.53;2.27;;;;;;;;;;5124357;27;20055;-60
2022/10/25 12:47:48;;;;;;;4.67;2.70;;;;;;;;;;5118468;27;20025;-60
2022/10/25 12:50:15;;;;;;;3.60;2.78;;;;;;;;;;5134895;27;20092;-59
2022/10/25 12:52:49;;;;;;;16.47;2.70;;;;;;;;;;5135399;27;20041;-59
2022/10/25 12:55:34;;;;;;;7.65;3.03;;;;;;;;;;5135485;27;20106;-59
2022/10/25 12:58:24;;;;;;;2.22;1.90;;;;;;;;;;5131740;27;20482;-60
2022/10/25 13:00:56;;;;;;;3.67;2.67;;;;;;;;;;5109259;28;20409;-60
2022/10/25 13:03:41;;;;;;;3.63;2.57;;;;;;;;;;5116722;27;20077;-59
2022/10/25 13:06:17;;;;;;;4.90;3.05;;;;;;;;;;5129983;27;20099;-59
2022/10/25 13:08:44;;;;;;;4.43;3.43;;;;;;;;;;5133830;27;20031;-59
2022/10/25 13:11:10;;;;;;;7.67;3.20;;;;;;;;;;5134920;27;20034;-59
2022/10/25 13:13:46;;;;;;;4.60;3.23;;;;;;;;;;5126257;27;20058;-60
2022/10/25 13:16:22;;;;;;;7.63;3.30;;;;;;;;;;5114076;28;20028;-59
2022/10/25 13:19:08;;;;;;;11.70;3.77;;;;;;;;;;5114468;28;20055;-59
2022/10/25 13:21:53;;;;;;;6.07;3.83;;;;;;;;;;5108970;28;20024;-60
2022/10/25 13:24:38;;;;;;;5.88;3.58;;;;;;;;;;5123057;27;20244;-60
2022/10/25 13:27:23;;;;;;;5.05;3.40;;;;;;;;;;5129436;27;20019;-59
2022/10/25 13:30:04;;;;;;;6.72;2.80;;;;;;;;;;5130697;27;20023;-61
2022/10/25 13:32:32;;;;;;;10.10;3.40;;;;;;;;;;5134728;27;20038;-61
2022/10/25 13:34:59;;;;;;;5.83;3.07;;;;;;;;;;5114808;27;20425;-60
2022/10/25 13:37:39;;;;;;;4.87;3.17;;;;;;;;;;5114079;28;20024;-61
2022/10/25 13:40:17;;;;;;;4.93;3.20;;;;;;;;;;5113867;28;20011;-61
2022/10/25 13:42:46;;;;;;;10.73;4.53;;;;;;;;;;5117446;27;20469;-61
2022/10/25 13:45:31;;;;;;;11.97;4.10;;;;;;;;;;5120345;27;20030;-61
2022/10/25 13:47:57;;;;;;;9.43;4.68;;;;;;;;;;5112436;27;20035;-61
2022/10/25 13:50:27;;;;;;;9.23;5.07;;;;;;;;;;5109787;27;20015;-59
2022/10/25 13:53:07;;;;;;;7.97;4.13;;;;;;;;;;5131880;27;20084;-60
2022/10/25 13:55:38;;;;;;;6.53;4.17;;;;;;;;;;5134446;27;20385;-60
2022/10/25 13:58:31;;;;;;;10.37;5.23;;;;;;;;;;5133710;27;20055;-61
2022/10/25 14:00:58;;;;;;;7.20;4.33;;;;;;;;;;5091902;28;20547;-60
2022/10/25 14:03:35;;;;;;;5.63;4.30;;;;;;;;;;5118920;27;20549;-61
2022/10/25 14:06:02;;;;;;;7.90;5.00;;;;;;;;;;5129052;27;20023;-61
2022/10/25 14:08:35;;;;;;;9.37;4.83;;;;;;;;;;5129127;27;20031;-61
2022/10/25 14:11:12;;;;;;;5.73;4.17;;;;;;;;;;5128886;27;20076;-60
2022/10/25 14:13:57;;;;;;;8.20;4.50;;;;;;;;;;5121434;27;20071;-63
2022/10/25 14:16:25;;;;;;;3.65;2.60;;;;;;;;;;5118265;27;20597;-61
2022/10/25 14:18:53;;;;;;;5.10;3.67;;;;;;;;;;5133344;27;20026;-61
2022/10/25 14:21:20;;;;;;;3.83;2.47;;;;;;;;;;5133963;27;20019;-61
2022/10/25 14:23:49;;;;;;;8.77;4.23;;;;;;;;;;5133427;27;20019;-61
2022/10/25 14:26:18;;;;;;;5.57;2.50;;;;;;;;;;5133112;27;20023;-61
2022/10/25 14:28:45;;;;;;;10.93;3.20;;;;;;;;;;5128441;27;20024;-61
2022/10/25 14:31:13;;;;;;;6.43;2.93;;;;;;;;;;5108243;28;20015;-61
2022/10/25 14:33:45;;;;;;;5.87;3.53;;;;;;;;;;5107687;28;20406;-62
2022/10/25 14:36:22;;;;;;;7.07;4.03;;;;;;;;;;5108320;28;20027;-61
2022/10/25 14:38:50;;;;;;;9.17;3.80;;;;;;;;;;5113116;28;20058;-62
2022/10/25 14:41:20;;;;;;;5.13;3.00;;;;;;;;;;5133476;27;20023;-61
2022/10/25 14:43:46;;;;;;;8.50;3.37;;;;;;;;;;5131090;27;20488;-61
2022/10/25 14:46:14;;;;;;;7.47;4.13;;;;;;;;;;5112563;28;20024;-61
2022/10/25 14:48:44;;;;;;;10.70;4.43;;;;;;;;;;5111954;28;20015;-62
2022/10/25 14:51:21;;;;;;;6.27;3.63;;;;;;;;;;5118028;27;20019;-62
2022/10/25 14:53:55;;;;;;;11.87;3.20;;;;;;;;;;5128000;27;20030;-64
2022/10/25 14:56:32;;;;;;;4.28;3.05;;;;;;;;;;5107677;28;20037;-62
2022/10/25 14:59:00;;;;;;;5.47;3.80;;;;;;;;;;5109242;28;20027;-63
2022/10/25 15:01:27;;;;;;;6.90;3.83;;;;;;;;;;5113178;28;20028;-61
2022/10/25 15:03:56;;;;;;;9.67;4.27;;;;;;;;;;5112895;28;20034;-61